sensor_id;sensor_type;location;lat;lon;timestamp;temperature;humidity
41628;DHT22;27321;50.816;6.054;2023-12-20T00:00:43;9.70;82.50
41628;DHT22;27321;50.816;6.054;2023-12-20T00:03:44;9.60;82.10
41628;DHT22;27321;50.816;6.054;2023-12-20T00:06:45;9.70;82.10
41628;DHT22;27321;50.816;6.054;2023-12-20T00:09:45;9.60;82.20
41628;DHT22;27321;50.816;6.054;2023-12-20T00:12:46;9.60;82.30
41628;DHT22;27321;50.816;6.054;2023-12-20T00:15:47;9.60;81.70
41628;DHT22;27321;50.816;6.054;2023-12-20T00:18:48;9.60;81.80
41628;DHT22;27321;50.816;6.054;2023-12-20T00:21:49;9.60;82.00
41628;DHT22;27321;50.816;6.054;2023-12-20T00:24:50;9.70;81.50
41628;DHT22;27321;50.816;6.054;2023-12-20T00:27:51;9.70;81.40
41628;DHT22;27321;50.816;6.054;2023-12-20T00:30:53;9.70;81.30
41628;DHT22;27321;50.816;6.054;2023-12-20T00:33:54;9.70;81.10
41628;DHT22;27321;50.816;6.054;2023-12-20T00:36:55;9.60;81.20
41628;DHT22;27321;50.816;6.054;2023-12-20T00:39:57;9.60;81.40
41628;DHT22;27321;50.816;6.054;2023-12-20T00:42:58;9.60;81.30
41628;DHT22;27321;50.816;6.054;2023-12-20T00:45:59;9.60;80.90
41628;DHT22;27321;50.816;6.054;2023-12-20T00:49:02;9.50;79.70
41628;DHT22;27321;50.816;6.054;2023-12-20T00:52:03;9.40;79.90
41628;DHT22;27321;50.816;6.054;2023-12-20T00:55:05;9.30;79.20
41628;DHT22;27321;50.816;6.054;2023-12-20T00:58:06;9.10;79.30
41628;DHT22;27321;50.816;6.054;2023-12-20T01:01:07;9.10;78.60
41628;DHT22;27321;50.816;6.054;2023-12-20T01:04:08;9.00;79.00
41628;DHT22;27321;50.816;6.054;2023-12-20T01:07:09;9.00;79.50
41628;DHT22;27321;50.816;6.054;2023-12-20T01:10:10;9.00;79.20
41628;DHT22;27321;50.816;6.054;2023-12-20T01:13:11;8.90;78.50
41628;DHT22;27321;50.816;6.054;2023-12-20T01:16:12;8.90;77.80
41628;DHT22;27321;50.816;6.054;2023-12-20T01:19:13;8.80;77.90
41628;DHT22;27321;50.816;6.054;2023-12-20T01:22:14;8.80;77.80
41628;DHT22;27321;50.816;6.054;2023-12-20T01:25:15;8.80;78.10
41628;DHT22;27321;50.816;6.054;2023-12-20T01:28:15;8.80;77.50
41628;DHT22;27321;50.816;6.054;2023-12-20T01:31:16;8.80;77.70
41628;DHT22;27321;50.816;6.054;2023-12-20T01:34:18;8.90;77.40
41628;DHT22;27321;50.816;6.054;2023-12-20T01:37:18;8.80;77.30
41628;DHT22;27321;50.816;6.054;2023-12-20T01:40:19;8.90;77.40
41628;DHT22;27321;50.816;6.054;2023-12-20T01:43:20;8.90;77.20
41628;DHT22;27321;50.816;6.054;2023-12-20T01:46:21;9.00;77.20
41628;DHT22;27321;50.816;6.054;2023-12-20T01:49:22;8.90;77.10
41628;DHT22;27321;50.816;6.054;2023-12-20T01:52:24;9.00;77.20
41628;DHT22;27321;50.816;6.054;2023-12-20T01:55:28;8.90;76.70
41628;DHT22;27321;50.816;6.054;2023-12-20T01:58:31;8.90;77.00
41628;DHT22;27321;50.816;6.054;2023-12-20T02:01:32;8.90;77.20
41628;DHT22;27321;50.816;6.054;2023-12-20T02:04:33;8.90;77.20
41628;DHT22;27321;50.816;6.054;2023-12-20T02:07:34;8.80;76.60
41628;DHT22;27321;50.816;6.054;2023-12-20T02:10:35;8.80;77.30
41628;DHT22;27321;50.816;6.054;2023-12-20T02:13:36;8.80;77.00
41628;DHT22;27321;50.816;6.054;2023-12-20T02:16:37;8.80;77.20
41628;DHT22;27321;50.816;6.054;2023-12-20T02:19:38;8.90;76.70
41628;DHT22;27321;50.816;6.054;2023-12-20T02:22:39;8.90;76.50
41628;DHT22;27321;50.816;6.054;2023-12-20T02:25:40;8.80;76.80
41628;DHT22;27321;50.816;6.054;2023-12-20T02:28:41;8.80;77.00
41628;DHT22;27321;50.816;6.054;2023-12-20T02:31:42;8.80;76.40
41628;DHT22;27321;50.816;6.054;2023-12-20T02:34:42;8.80;76.70
41628;DHT22;27321;50.816;6.054;2023-12-20T02:37:43;8.80;76.40
41628;DHT22;27321;50.816;6.054;2023-12-20T02:40:44;8.80;76.30
41628;DHT22;27321;50.816;6.054;2023-12-20T02:43:45;8.80;76.50
41628;DHT22;27321;50.816;6.054;2023-12-20T02:46:46;8.80;76.80
41628;DHT22;27321;50.816;6.054;2023-12-20T02:49:47;8.80;76.60
41628;DHT22;27321;50.816;6.054;2023-12-20T02:52:51;8.80;76.40
41628;DHT22;27321;50.816;6.054;2023-12-20T02:55:52;8.80;76.60
41628;DHT22;27321;50.816;6.054;2023-12-20T02:58:53;8.70;76.60
41628;DHT22;27321;50.816;6.054;2023-12-20T03:01:54;8.80;76.60
41628;DHT22;27321;50.816;6.054;2023-12-20T03:04:58;8.70;76.40
41628;DHT22;27321;50.816;6.054;2023-12-20T03:08:03;8.70;76.60
41628;DHT22;27321;50.816;6.054;2023-12-20T03:11:04;8.60;76.20
41628;DHT22;27321;50.816;6.054;2023-12-20T03:14:05;8.60;76.80
41628;DHT22;27321;50.816;6.054;2023-12-20T03:17:06;8.50;76.90
41628;DHT22;27321;50.816;6.054;2023-12-20T03:20:08;8.50;76.60
41628;DHT22;27321;50.816;6.054;2023-12-20T03:23:09;8.50;76.40
41628;DHT22;27321;50.816;6.054;2023-12-20T03:26:10;8.50;76.80
41628;DHT22;27321;50.816;6.054;2023-12-20T03:29:11;8.40;77.20
41628;DHT22;27321;50.816;6.054;2023-12-20T03:32:11;8.40;76.90
41628;DHT22;27321;50.816;6.054;2023-12-20T03:35:12;8.40;76.90
41628;DHT22;27321;50.816;6.054;2023-12-20T03:38:14;8.40;77.30
41628;DHT22;27321;50.816;6.054;2023-12-20T03:41:15;8.40;77.10
41628;DHT22;27321;50.816;6.054;2023-12-20T03:44:17;8.30;77.20
41628;DHT22;27321;50.816;6.054;2023-12-20T03:47:21;8.30;77.20
41628;DHT22;27321;50.816;6.054;2023-12-20T03:50:26;8.30;77.10
41628;DHT22;27321;50.816;6.054;2023-12-20T03:53:27;8.40;77.20
41628;DHT22;27321;50.816;6.054;2023-12-20T03:56:28;8.40;77.20
41628;DHT22;27321;50.816;6.054;2023-12-20T03:59:29;8.40;76.80
41628;DHT22;27321;50.816;6.054;2023-12-20T04:02:30;8.40;77.00
41628;DHT22;27321;50.816;6.054;2023-12-20T04:05:31;8.40;76.40
41628;DHT22;27321;50.816;6.054;2023-12-20T04:08:32;8.40;76.80
41628;DHT22;27321;50.816;6.054;2023-12-20T04:11:36;8.40;76.80
41628;DHT22;27321;50.816;6.054;2023-12-20T04:14:37;8.40;76.50
41628;DHT22;27321;50.816;6.054;2023-12-20T04:17:38;8.30;76.70
41628;DHT22;27321;50.816;6.054;2023-12-20T04:20:39;8.30;76.90
41628;DHT22;27321;50.816;6.054;2023-12-20T04:23:40;8.30;76.90
41628;DHT22;27321;50.816;6.054;2023-12-20T04:26:41;8.30;76.90
41628;DHT22;27321;50.816;6.054;2023-12-20T04:29:41;8.30;77.10
41628;DHT22;27321;50.816;6.054;2023-12-20T04:32:43;8.30;76.80
41628;DHT22;27321;50.816;6.054;2023-12-20T04:35:44;8.20;77.10
41628;DHT22;27321;50.816;6.054;2023-12-20T04:38:46;8.10;77.10
41628;DHT22;27321;50.816;6.054;2023-12-20T04:41:47;8.10;77.30
41628;DHT22;27321;50.816;6.054;2023-12-20T04:44:48;8.10;77.30
41628;DHT22;27321;50.816;6.054;2023-12-20T04:47:49;8.10;77.20
41628;DHT22;27321;50.816;6.054;2023-12-20T04:50:50;8.00;77.40
41628;DHT22;27321;50.816;6.054;2023-12-20T04:53:50;8.10;77.50
41628;DHT22;27321;50.816;6.054;2023-12-20T04:56:51;8.10;77.30
41628;DHT22;27321;50.816;6.054;2023-12-20T04:59:52;8.10;77.50
41628;DHT22;27321;50.816;6.054;2023-12-20T05:02:53;8.10;77.50
41628;DHT22;27321;50.816;6.054;2023-12-20T05:05:54;8.10;77.90
41628;DHT22;27321;50.816;6.054;2023-12-20T05:08:55;8.10;77.70
41628;DHT22;27321;50.816;6.054;2023-12-20T05:11:56;8.10;77.70
41628;DHT22;27321;50.816;6.054;2023-12-20T05:14:58;8.10;77.70
41628;DHT22;27321;50.816;6.054;2023-12-20T05:17:59;8.10;77.60
41628;DHT22;27321;50.816;6.054;2023-12-20T05:21:03;8.10;77.80
41628;DHT22;27321;50.816;6.054;2023-12-20T05:24:04;8.20;77.60
41628;DHT22;27321;50.816;6.054;2023-12-20T05:27:05;8.20;77.60
41628;DHT22;27321;50.816;6.054;2023-12-20T05:30:07;8.20;77.50
41628;DHT22;27321;50.816;6.054;2023-12-20T05:33:08;8.20;77.70
41628;DHT22;27321;50.816;6.054;2023-12-20T05:36:09;8.20;77.20
41628;DHT22;27321;50.816;6.054;2023-12-20T05:39:12;8.20;77.30
41628;DHT22;27321;50.816;6.054;2023-12-20T05:42:12;8.10;77.30
41628;DHT22;27321;50.816;6.054;2023-12-20T05:45:14;8.20;77.90
41628;DHT22;27321;50.816;6.054;2023-12-20T05:48:15;8.20;77.60
41628;DHT22;27321;50.816;6.054;2023-12-20T05:51:16;8.20;77.50
41628;DHT22;27321;50.816;6.054;2023-12-20T05:54:17;8.20;77.70
41628;DHT22;27321;50.816;6.054;2023-12-20T05:57:18;8.10;77.10
41628;DHT22;27321;50.816;6.054;2023-12-20T06:00:20;8.10;77.30
41628;DHT22;27321;50.816;6.054;2023-12-20T06:03:21;8.20;77.20
41628;DHT22;27321;50.816;6.054;2023-12-20T06:06:22;8.20;77.20
41628;DHT22;27321;50.816;6.054;2023-12-20T06:09:29;8.20;76.90
41628;DHT22;27321;50.816;6.054;2023-12-20T06:12:30;8.20;76.60
41628;DHT22;27321;50.816;6.054;2023-12-20T06:15:33;8.30;76.70
41628;DHT22;27321;50.816;6.054;2023-12-20T06:18:34;8.20;76.80
41628;DHT22;27321;50.816;6.054;2023-12-20T06:21:35;8.20;76.70
41628;DHT22;27321;50.816;6.054;2023-12-20T06:24:36;8.20;77.00
41628;DHT22;27321;50.816;6.054;2023-12-20T06:27:36;8.20;76.70
41628;DHT22;27321;50.816;6.054;2023-12-20T06:30:37;8.20;76.10
41628;DHT22;27321;50.816;6.054;2023-12-20T06:33:38;8.10;76.00
41628;DHT22;27321;50.816;6.054;2023-12-20T06:36:41;8.10;76.10
41628;DHT22;27321;50.816;6.054;2023-12-20T06:39:42;8.10;76.00
41628;DHT22;27321;50.816;6.054;2023-12-20T06:42:44;8.10;76.30
41628;DHT22;27321;50.816;6.054;2023-12-20T06:45:45;8.10;76.10
41628;DHT22;27321;50.816;6.054;2023-12-20T06:48:46;8.10;76.40
41628;DHT22;27321;50.816;6.054;2023-12-20T06:51:47;8.00;76.70
41628;DHT22;27321;50.816;6.054;2023-12-20T06:54:48;8.00;76.60
41628;DHT22;27321;50.816;6.054;2023-12-20T06:57:49;8.10;76.30
41628;DHT22;27321;50.816;6.054;2023-12-20T07:00:53;8.10;76.40
41628;DHT22;27321;50.816;6.054;2023-12-20T07:03:54;8.10;76.10
41628;DHT22;27321;50.816;6.054;2023-12-20T07:06:55;8.10;76.40
41628;DHT22;27321;50.816;6.054;2023-12-20T07:09:57;8.10;76.40
41628;DHT22;27321;50.816;6.054;2023-12-20T07:12:58;8.00;76.30
41628;DHT22;27321;50.816;6.054;2023-12-20T07:15:59;8.00;76.40
41628;DHT22;27321;50.816;6.054;2023-12-20T07:19:02;7.90;76.60
41628;DHT22;27321;50.816;6.054;2023-12-20T07:22:06;8.00;76.50
41628;DHT22;27321;50.816;6.054;2023-12-20T07:25:08;7.90;76.60
41628;DHT22;27321;50.816;6.054;2023-12-20T07:28:09;7.90;76.70
41628;DHT22;27321;50.816;6.054;2023-12-20T07:31:10;7.90;76.40
41628;DHT22;27321;50.816;6.054;2023-12-20T07:34:11;7.90;76.60
41628;DHT22;27321;50.816;6.054;2023-12-20T07:37:12;7.90;76.90
41628;DHT22;27321;50.816;6.054;2023-12-20T07:40:14;7.90;76.70
41628;DHT22;27321;50.816;6.054;2023-12-20T07:43:17;7.90;76.40
41628;DHT22;27321;50.816;6.054;2023-12-20T07:46:18;7.90;76.40
41628;DHT22;27321;50.816;6.054;2023-12-20T07:49:23;7.80;76.50
41628;DHT22;27321;50.816;6.054;2023-12-20T07:52:24;7.80;76.30
41628;DHT22;27321;50.816;6.054;2023-12-20T07:55:27;7.80;76.70
41628;DHT22;27321;50.816;6.054;2023-12-20T07:58:28;7.80;76.50
41628;DHT22;27321;50.816;6.054;2023-12-20T08:01:30;7.70;76.50
41628;DHT22;27321;50.816;6.054;2023-12-20T08:04:31;7.70;76.40
41628;DHT22;27321;50.816;6.054;2023-12-20T08:07:33;7.80;76.40
41628;DHT22;27321;50.816;6.054;2023-12-20T08:10:34;7.80;76.30
41628;DHT22;27321;50.816;6.054;2023-12-20T08:13:34;7.80;76.20
41628;DHT22;27321;50.816;6.054;2023-12-20T08:16:35;7.70;76.20
41628;DHT22;27321;50.816;6.054;2023-12-20T08:19:36;7.70;76.50
41628;DHT22;27321;50.816;6.054;2023-12-20T08:22:37;7.70;76.40
41628;DHT22;27321;50.816;6.054;2023-12-20T08:25:38;7.70;76.30
41628;DHT22;27321;50.816;6.054;2023-12-20T08:28:39;7.80;76.50
41628;DHT22;27321;50.816;6.054;2023-12-20T08:31:40;7.80;76.40
41628;DHT22;27321;50.816;6.054;2023-12-20T08:34:40;7.80;76.60
41628;DHT22;27321;50.816;6.054;2023-12-20T08:37:41;7.80;76.40
41628;DHT22;27321;50.816;6.054;2023-12-20T08:40:45;7.80;76.50
41628;DHT22;27321;50.816;6.054;2023-12-20T08:43:46;7.80;76.30
41628;DHT22;27321;50.816;6.054;2023-12-20T08:46:47;7.80;76.50
41628;DHT22;27321;50.816;6.054;2023-12-20T08:49:48;7.90;76.30
41628;DHT22;27321;50.816;6.054;2023-12-20T08:52:49;7.90;76.10
41628;DHT22;27321;50.816;6.054;2023-12-20T08:55:50;7.90;76.20
41628;DHT22;27321;50.816;6.054;2023-12-20T08:58:51;7.90;76.10
41628;DHT22;27321;50.816;6.054;2023-12-20T09:01:52;7.90;76.30
41628;DHT22;27321;50.816;6.054;2023-12-20T09:04:55;8.00;75.80
41628;DHT22;27321;50.816;6.054;2023-12-20T09:07:56;8.00;75.80
41628;DHT22;27321;50.816;6.054;2023-12-20T09:10:57;8.00;75.70
41628;DHT22;27321;50.816;6.054;2023-12-20T09:13:58;8.00;75.80
41628;DHT22;27321;50.816;6.054;2023-12-20T09:16:59;8.00;75.60
41628;DHT22;27321;50.816;6.054;2023-12-20T09:20:04;8.00;75.70
41628;DHT22;27321;50.816;6.054;2023-12-20T09:23:08;8.00;75.70
41628;DHT22;27321;50.816;6.054;2023-12-20T09:26:09;8.00;75.90
41628;DHT22;27321;50.816;6.054;2023-12-20T09:29:09;8.00;76.10
41628;DHT22;27321;50.816;6.054;2023-12-20T09:32:17;8.00;75.70
41628;DHT22;27321;50.816;6.054;2023-12-20T09:35:17;8.00;75.90
41628;DHT22;27321;50.816;6.054;2023-12-20T09:38:18;8.00;75.70
41628;DHT22;27321;50.816;6.054;2023-12-20T09:41:19;7.90;75.70
41628;DHT22;27321;50.816;6.054;2023-12-20T09:44:20;7.90;76.30
41628;DHT22;27321;50.816;6.054;2023-12-20T09:47:23;7.90;75.90
41628;DHT22;27321;50.816;6.054;2023-12-20T09:50:25;7.90;76.20
41628;DHT22;27321;50.816;6.054;2023-12-20T09:53:26;7.90;76.00
41628;DHT22;27321;50.816;6.054;2023-12-20T09:56:30;7.90;76.20
41628;DHT22;27321;50.816;6.054;2023-12-20T09:59:31;7.90;76.30
41628;DHT22;27321;50.816;6.054;2023-12-20T10:02:33;8.00;76.20
41628;DHT22;27321;50.816;6.054;2023-12-20T10:05:35;8.00;76.10
41628;DHT22;27321;50.816;6.054;2023-12-20T10:08:36;8.00;75.80
41628;DHT22;27321;50.816;6.054;2023-12-20T10:11:38;8.00;75.80
41628;DHT22;27321;50.816;6.054;2023-12-20T10:14:40;8.10;76.10
41628;DHT22;27321;50.816;6.054;2023-12-20T10:17:40;8.10;75.80
41628;DHT22;27321;50.816;6.054;2023-12-20T10:20:44;8.10;75.50
41628;DHT22;27321;50.816;6.054;2023-12-20T10:23:46;8.20;75.60
41628;DHT22;27321;50.816;6.054;2023-12-20T10:26:47;8.20;75.40
41628;DHT22;27321;50.816;6.054;2023-12-20T10:29:48;8.20;75.40
41628;DHT22;27321;50.816;6.054;2023-12-20T10:32:49;8.20;75.50
41628;DHT22;27321;50.816;6.054;2023-12-20T10:35:50;8.20;75.10
41628;DHT22;27321;50.816;6.054;2023-12-20T10:38:52;8.20;75.10
41628;DHT22;27321;50.816;6.054;2023-12-20T10:41:53;8.30;74.90
41628;DHT22;27321;50.816;6.054;2023-12-20T10:44:59;8.20;75.00
41628;DHT22;27321;50.816;6.054;2023-12-20T10:48:05;8.20;75.40
41628;DHT22;27321;50.816;6.054;2023-12-20T10:51:07;8.30;75.10
41628;DHT22;27321;50.816;6.054;2023-12-20T10:54:09;8.40;75.00
41628;DHT22;27321;50.816;6.054;2023-12-20T10:57:10;8.30;74.90
41628;DHT22;27321;50.816;6.054;2023-12-20T11:00:14;8.30;74.80
41628;DHT22;27321;50.816;6.054;2023-12-20T11:03:17;8.30;74.90
41628;DHT22;27321;50.816;6.054;2023-12-20T11:10:26;8.30;75.10
41628;DHT22;27321;50.816;6.054;2023-12-20T11:13:37;8.30;75.10
41628;DHT22;27321;50.816;6.054;2023-12-20T11:16:42;8.40;75.10
41628;DHT22;27321;50.816;6.054;2023-12-20T11:20:07;8.40;75.00
41628;DHT22;27321;50.816;6.054;2023-12-20T11:23:11;8.50;74.80
41628;DHT22;27321;50.816;6.054;2023-12-20T11:26:15;8.50;74.80
41628;DHT22;27321;50.816;6.054;2023-12-20T11:29:34;8.50;75.00
41628;DHT22;27321;50.816;6.054;2023-12-20T11:32:36;8.50;74.80
41628;DHT22;27321;50.816;6.054;2023-12-20T11:35:39;8.50;74.80
41628;DHT22;27321;50.816;6.054;2023-12-20T11:39:00;8.40;75.00
41628;DHT22;27321;50.816;6.054;2023-12-20T11:42:10;8.40;75.40
41628;DHT22;27321;50.816;6.054;2023-12-20T11:45:16;8.50;75.40
41628;DHT22;27321;50.816;6.054;2023-12-20T11:48:20;8.50;75.10
41628;DHT22;27321;50.816;6.054;2023-12-20T11:51:21;8.50;75.10
41628;DHT22;27321;50.816;6.054;2023-12-20T11:54:23;8.50;75.30
41628;DHT22;27321;50.816;6.054;2023-12-20T11:57:24;8.50;75.10
41628;DHT22;27321;50.816;6.054;2023-12-20T12:00:58;8.50;75.40
41628;DHT22;27321;50.816;6.054;2023-12-20T12:04:20;8.50;75.30
41628;DHT22;27321;50.816;6.054;2023-12-20T12:07:21;8.40;75.20
41628;DHT22;27321;50.816;6.054;2023-12-20T12:10:22;8.40;75.40
41628;DHT22;27321;50.816;6.054;2023-12-20T12:13:23;8.50;75.80
41628;DHT22;27321;50.816;6.054;2023-12-20T12:16:27;8.50;75.30
41628;DHT22;27321;50.816;6.054;2023-12-20T12:19:29;8.60;75.50
41628;DHT22;27321;50.816;6.054;2023-12-20T12:22:35;8.60;75.20
41628;DHT22;27321;50.816;6.054;2023-12-20T12:25:37;8.60;75.30
41628;DHT22;27321;50.816;6.054;2023-12-20T12:28:40;8.60;75.60
41628;DHT22;27321;50.816;6.054;2023-12-20T12:31:45;8.60;75.50
41628;DHT22;27321;50.816;6.054;2023-12-20T12:34:45;8.70;75.20
41628;DHT22;27321;50.816;6.054;2023-12-20T12:37:47;8.70;75.40
41628;DHT22;27321;50.816;6.054;2023-12-20T12:40:48;8.70;75.40
41628;DHT22;27321;50.816;6.054;2023-12-20T12:43:50;8.70;75.70
41628;DHT22;27321;50.816;6.054;2023-12-20T12:46:51;8.70;76.50
41628;DHT22;27321;50.816;6.054;2023-12-20T12:49:54;8.70;76.40
41628;DHT22;27321;50.816;6.054;2023-12-20T12:52:55;8.70;76.50
41628;DHT22;27321;50.816;6.054;2023-12-20T12:55:56;8.70;76.90
41628;DHT22;27321;50.816;6.054;2023-12-20T12:58:57;8.70;76.90
41628;DHT22;27321;50.816;6.054;2023-12-20T13:01:58;8.70;77.00
41628;DHT22;27321;50.816;6.054;2023-12-20T13:04:59;8.80;77.40
41628;DHT22;27321;50.816;6.054;2023-12-20T13:08:06;8.80;77.50
41628;DHT22;27321;50.816;6.054;2023-12-20T13:11:07;8.80;77.30
41628;DHT22;27321;50.816;6.054;2023-12-20T13:14:08;8.80;77.40
41628;DHT22;27321;50.816;6.054;2023-12-20T13:17:11;8.80;77.50
41628;DHT22;27321;50.816;6.054;2023-12-20T13:20:12;8.80;77.40
41628;DHT22;27321;50.816;6.054;2023-12-20T13:23:13;8.80;77.50
41628;DHT22;27321;50.816;6.054;2023-12-20T13:26:15;8.80;77.60
41628;DHT22;27321;50.816;6.054;2023-12-20T13:29:16;8.70;77.90
41628;DHT22;27321;50.816;6.054;2023-12-20T13:32:17;8.70;78.50
41628;DHT22;27321;50.816;6.054;2023-12-20T13:35:20;8.70;78.40
41628;DHT22;27321;50.816;6.054;2023-12-20T13:38:21;8.70;78.60
41628;DHT22;27321;50.816;6.054;2023-12-20T13:41:22;8.70;78.60
41628;DHT22;27321;50.816;6.054;2023-12-20T13:44:23;8.80;79.10
41628;DHT22;27321;50.816;6.054;2023-12-20T13:47:23;8.80;78.70
41628;DHT22;27321;50.816;6.054;2023-12-20T13:50:24;8.90;78.90
41628;DHT22;27321;50.816;6.054;2023-12-20T13:53:26;8.90;79.00
41628;DHT22;27321;50.816;6.054;2023-12-20T13:56:29;8.90;79.00
41628;DHT22;27321;50.816;6.054;2023-12-20T13:59:30;8.90;78.90
41628;DHT22;27321;50.816;6.054;2023-12-20T14:02:31;8.90;78.90
41628;DHT22;27321;50.816;6.054;2023-12-20T14:05:32;8.90;78.90
41628;DHT22;27321;50.816;6.054;2023-12-20T14:08:36;8.90;78.90
41628;DHT22;27321;50.816;6.054;2023-12-20T14:11:38;9.00;78.80
41628;DHT22;27321;50.816;6.054;2023-12-20T14:14:41;9.00;78.50
41628;DHT22;27321;50.816;6.054;2023-12-20T14:17:42;9.00;78.60
41628;DHT22;27321;50.816;6.054;2023-12-20T14:20:43;9.00;78.30
41628;DHT22;27321;50.816;6.054;2023-12-20T14:23:45;9.00;78.30
41628;DHT22;27321;50.816;6.054;2023-12-20T14:26:46;9.00;78.10
41628;DHT22;27321;50.816;6.054;2023-12-20T14:29:47;9.00;78.10
41628;DHT22;27321;50.816;6.054;2023-12-20T14:32:48;9.00;78.00
41628;DHT22;27321;50.816;6.054;2023-12-20T14:35:49;9.00;78.10
41628;DHT22;27321;50.816;6.054;2023-12-20T14:38:51;9.00;78.40
41628;DHT22;27321;50.816;6.054;2023-12-20T14:41:52;9.00;78.10
41628;DHT22;27321;50.816;6.054;2023-12-20T14:44:54;9.00;78.20
41628;DHT22;27321;50.816;6.054;2023-12-20T14:47:55;9.00;78.30
41628;DHT22;27321;50.816;6.054;2023-12-20T14:50:56;9.10;78.20
41628;DHT22;27321;50.816;6.054;2023-12-20T14:53:57;9.00;78.20
41628;DHT22;27321;50.816;6.054;2023-12-20T14:56:59;9.00;78.50
41628;DHT22;27321;50.816;6.054;2023-12-20T15:00:00;9.10;78.50
41628;DHT22;27321;50.816;6.054;2023-12-20T15:03:04;9.00;78.60
41628;DHT22;27321;50.816;6.054;2023-12-20T15:06:07;9.10;79.20
41628;DHT22;27321;50.816;6.054;2023-12-20T15:09:12;9.10;79.20
41628;DHT22;27321;50.816;6.054;2023-12-20T15:12:16;9.10;79.40
41628;DHT22;27321;50.816;6.054;2023-12-20T15:15:17;9.00;80.20
41628;DHT22;27321;50.816;6.054;2023-12-20T15:18:18;9.00;79.90
41628;DHT22;27321;50.816;6.054;2023-12-20T15:21:19;9.00;80.10
41628;DHT22;27321;50.816;6.054;2023-12-20T15:24:20;9.00;80.00
41628;DHT22;27321;50.816;6.054;2023-12-20T15:27:27;9.00;79.90
41628;DHT22;27321;50.816;6.054;2023-12-20T15:30:28;9.10;79.80
41628;DHT22;27321;50.816;6.054;2023-12-20T15:33:30;9.00;79.70
41628;DHT22;27321;50.816;6.054;2023-12-20T15:36:31;9.00;79.40
41628;DHT22;27321;50.816;6.054;2023-12-20T15:39:32;9.00;79.40
41628;DHT22;27321;50.816;6.054;2023-12-20T15:42:33;9.00;79.40
41628;DHT22;27321;50.816;6.054;2023-12-20T15:45:36;9.00;79.10
41628;DHT22;27321;50.816;6.054;2023-12-20T15:48:37;9.00;79.20
41628;DHT22;27321;50.816;6.054;2023-12-20T15:51:38;9.10;79.20
41628;DHT22;27321;50.816;6.054;2023-12-20T15:54:39;9.10;79.10
41628;DHT22;27321;50.816;6.054;2023-12-20T15:57:42;9.10;79.00
41628;DHT22;27321;50.816;6.054;2023-12-20T16:00:43;9.10;78.80
41628;DHT22;27321;50.816;6.054;2023-12-20T16:03:43;9.00;78.80
41628;DHT22;27321;50.816;6.054;2023-12-20T16:06:44;9.10;79.00
41628;DHT22;27321;50.816;6.054;2023-12-20T16:09:49;9.00;78.90
41628;DHT22;27321;50.816;6.054;2023-12-20T16:12:52;9.10;79.10
41628;DHT22;27321;50.816;6.054;2023-12-20T16:15:53;9.00;79.10
41628;DHT22;27321;50.816;6.054;2023-12-20T16:18:54;9.00;79.10
41628;DHT22;27321;50.816;6.054;2023-12-20T16:21:55;9.00;79.00
41628;DHT22;27321;50.816;6.054;2023-12-20T16:24:56;9.00;79.30
41628;DHT22;27321;50.816;6.054;2023-12-20T16:27:57;9.00;79.10
41628;DHT22;27321;50.816;6.054;2023-12-20T16:30:58;9.00;79.20
41628;DHT22;27321;50.816;6.054;2023-12-20T16:33:59;9.00;78.90
41628;DHT22;27321;50.816;6.054;2023-12-20T16:37:00;9.00;79.00
41628;DHT22;27321;50.816;6.054;2023-12-20T16:40:06;9.00;79.00
41628;DHT22;27321;50.816;6.054;2023-12-20T16:43:08;9.00;79.10
41628;DHT22;27321;50.816;6.054;2023-12-20T16:46:09;9.00;79.00
41628;DHT22;27321;50.816;6.054;2023-12-20T16:49:10;9.00;79.20
41628;DHT22;27321;50.816;6.054;2023-12-20T16:52:12;9.10;79.00
41628;DHT22;27321;50.816;6.054;2023-12-20T16:55:14;9.10;78.80
41628;DHT22;27321;50.816;6.054;2023-12-20T16:58:15;9.10;79.10
41628;DHT22;27321;50.816;6.054;2023-12-20T17:01:16;9.10;78.90
41628;DHT22;27321;50.816;6.054;2023-12-20T17:04:17;9.10;78.80
41628;DHT22;27321;50.816;6.054;2023-12-20T17:07:18;9.10;78.90
41628;DHT22;27321;50.816;6.054;2023-12-20T17:10:19;9.20;79.10
41628;DHT22;27321;50.816;6.054;2023-12-20T17:13:20;9.20;78.60
41628;DHT22;27321;50.816;6.054;2023-12-20T17:16:21;9.30;78.80
41628;DHT22;27321;50.816;6.054;2023-12-20T17:19:22;9.30;78.50
41628;DHT22;27321;50.816;6.054;2023-12-20T17:22:24;9.30;78.50
41628;DHT22;27321;50.816;6.054;2023-12-20T17:25:25;9.20;78.20
41628;DHT22;27321;50.816;6.054;2023-12-20T17:28:26;9.20;78.40
41628;DHT22;27321;50.816;6.054;2023-12-20T17:31:27;9.30;78.40
41628;DHT22;27321;50.816;6.054;2023-12-20T17:34:28;9.20;78.40
41628;DHT22;27321;50.816;6.054;2023-12-20T17:37:29;9.30;78.50
41628;DHT22;27321;50.816;6.054;2023-12-20T17:40:30;9.30;78.40
41628;DHT22;27321;50.816;6.054;2023-12-20T17:43:31;9.30;78.40
41628;DHT22;27321;50.816;6.054;2023-12-20T17:46:32;9.30;78.20
41628;DHT22;27321;50.816;6.054;2023-12-20T17:49:33;9.40;78.40
41628;DHT22;27321;50.816;6.054;2023-12-20T17:52:34;9.40;78.20
41628;DHT22;27321;50.816;6.054;2023-12-20T17:55:35;9.40;78.00
41628;DHT22;27321;50.816;6.054;2023-12-20T17:58:36;9.40;78.20
41628;DHT22;27321;50.816;6.054;2023-12-20T18:01:37;9.50;78.20
41628;DHT22;27321;50.816;6.054;2023-12-20T18:04:38;9.40;78.20
41628;DHT22;27321;50.816;6.054;2023-12-20T18:07:39;9.40;78.20
41628;DHT22;27321;50.816;6.054;2023-12-20T18:10:42;9.50;78.50
41628;DHT22;27321;50.816;6.054;2023-12-20T18:13:43;9.40;78.50
41628;DHT22;27321;50.816;6.054;2023-12-20T18:16:44;9.40;78.60
41628;DHT22;27321;50.816;6.054;2023-12-20T18:19:45;9.40;78.60
41628;DHT22;27321;50.816;6.054;2023-12-20T18:22:46;9.50;78.90
41628;DHT22;27321;50.816;6.054;2023-12-20T18:25:47;9.50;78.80
41628;DHT22;27321;50.816;6.054;2023-12-20T18:28:49;9.50;78.70
41628;DHT22;27321;50.816;6.054;2023-12-20T18:31:49;9.50;78.70
41628;DHT22;27321;50.816;6.054;2023-12-20T18:34:51;9.50;78.70
41628;DHT22;27321;50.816;6.054;2023-12-20T18:37:52;9.50;78.90
41628;DHT22;27321;50.816;6.054;2023-12-20T18:40:53;9.50;79.00
41628;DHT22;27321;50.816;6.054;2023-12-20T18:43:54;9.50;78.70
41628;DHT22;27321;50.816;6.054;2023-12-20T18:46:56;9.50;78.80
41628;DHT22;27321;50.816;6.054;2023-12-20T18:49:57;9.50;78.70
41628;DHT22;27321;50.816;6.054;2023-12-20T18:52:57;9.50;79.00
41628;DHT22;27321;50.816;6.054;2023-12-20T18:55:59;9.50;79.10
41628;DHT22;27321;50.816;6.054;2023-12-20T18:59:00;9.50;79.60
41628;DHT22;27321;50.816;6.054;2023-12-20T19:02:12;9.50;79.60
41628;DHT22;27321;50.816;6.054;2023-12-20T19:05:16;9.50;79.90
41628;DHT22;27321;50.816;6.054;2023-12-20T19:08:19;9.50;79.70
41628;DHT22;27321;50.816;6.054;2023-12-20T19:11:22;9.50;79.90
41628;DHT22;27321;50.816;6.054;2023-12-20T19:14:26;9.50;80.20
41628;DHT22;27321;50.816;6.054;2023-12-20T19:17:29;9.50;80.20
41628;DHT22;27321;50.816;6.054;2023-12-20T19:20:31;9.40;80.30
41628;DHT22;27321;50.816;6.054;2023-12-20T19:23:32;9.50;80.20
41628;DHT22;27321;50.816;6.054;2023-12-20T19:26:35;9.50;80.00
41628;DHT22;27321;50.816;6.054;2023-12-20T19:29:38;9.50;80.00